createdAt,value
2022-11-05T00:00:53.235Z,9.50
2022-11-05T00:04:06.174Z,9.77
2022-11-05T00:07:13.222Z,8.00
2022-11-05T00:10:05.974Z,8.32
2022-11-05T00:13:12.412Z,8.88
2022-11-05T00:16:16.947Z,9.10
2022-11-05T00:19:10.153Z,11.10
2022-11-05T00:22:14.659Z,8.50
2022-11-05T00:25:17.868Z,11.45
2022-11-05T00:28:04.940Z,11.55
2022-11-05T00:30:52.135Z,10.65
2022-11-05T00:33:40.127Z,10.97
2022-11-05T00:36:26.938Z,12.68
2022-11-05T00:39:13.848Z,11.38
2022-11-05T00:42:19.656Z,9.10
2022-11-05T00:45:08.103Z,11.27
2022-11-05T00:48:12.791Z,11.67
2022-11-05T00:50:59.951Z,8.48
2022-11-05T00:53:46.993Z,9.50
2022-11-05T00:56:34.286Z,8.85
2022-11-05T00:59:22.308Z,9.35
2022-11-05T01:02:09.637Z,9.90
2022-11-05T01:04:56.505Z,10.95
2022-11-05T01:07:43.233Z,9.02
2022-11-05T01:10:30.621Z,10.43
2022-11-05T01:13:19.826Z,9.55
2022-11-05T01:16:10.767Z,9.27
2022-11-05T01:18:57.466Z,9.50
2022-11-05T01:21:44.151Z,9.10
2022-11-05T01:24:30.900Z,9.05
2022-11-05T01:27:18.042Z,9.18
2022-11-05T01:30:06.940Z,8.90
2022-11-05T01:32:55.262Z,11.02
2022-11-05T01:35:42.502Z,10.13
2022-11-05T01:38:29.308Z,11.75
2022-11-05T01:41:16.217Z,13.00
2022-11-05T01:44:03.404Z,11.47
2022-11-05T01:46:50.535Z,10.55
2022-11-05T01:49:38.785Z,8.88
2022-11-05T01:52:27.915Z,9.18
2022-11-05T01:55:20.686Z,9.60
2022-11-05T01:58:10.298Z,8.47
2022-11-05T02:00:58.068Z,8.13
2022-11-05T02:03:46.148Z,8.95
2022-11-05T02:06:38.312Z,9.13
2022-11-05T02:09:31.051Z,10.30
2022-11-05T02:12:19.326Z,7.70
2022-11-05T02:15:08.144Z,9.52
2022-11-05T02:18:05.798Z,9.23
2022-11-05T02:21:04.049Z,9.38
2022-11-05T02:24:13.946Z,9.63
2022-11-05T02:27:15.277Z,9.33
2022-11-05T02:30:08.716Z,9.93
2022-11-05T02:33:16.294Z,11.60
2022-11-05T02:36:14.239Z,11.90
2022-11-05T02:39:12.940Z,9.48
2022-11-05T02:42:09.195Z,10.00
2022-11-05T02:45:06.398Z,9.70
2022-11-05T02:47:59.993Z,8.30
2022-11-05T02:50:57.905Z,12.00
2022-11-05T02:53:51.986Z,11.32
2022-11-05T02:56:42.781Z,9.87
2022-11-05T02:59:29.766Z,11.27
2022-11-05T03:02:17.095Z,11.88
2022-11-05T03:05:05.274Z,10.18
2022-11-05T03:08:00.482Z,12.23
2022-11-05T03:10:57.541Z,9.90
2022-11-05T03:13:53.786Z,10.40
2022-11-05T03:16:42.907Z,11.10
2022-11-05T03:19:37.919Z,9.93
2022-11-05T03:22:29.498Z,13.13
2022-11-05T03:25:22.577Z,10.50
2022-11-05T03:28:11.756Z,8.48
2022-11-05T03:31:00.300Z,10.15
2022-11-05T03:33:49.421Z,10.45
2022-11-05T03:36:41.176Z,8.25
2022-11-05T03:39:33.851Z,8.20
2022-11-05T03:42:26.945Z,11.93
2022-11-05T03:45:17.704Z,9.85
2022-11-05T03:48:08.198Z,10.07
2022-11-05T03:51:01.409Z,10.35
2022-11-05T03:53:51.949Z,9.20
2022-11-05T03:56:45.697Z,9.55
2022-11-05T03:59:41.452Z,8.82
2022-11-05T04:02:28.590Z,8.20
2022-11-05T04:05:15.640Z,10.38
2022-11-05T04:08:20.185Z,9.37
2022-11-05T04:11:26.474Z,9.93
2022-11-05T04:14:13.475Z,10.43
2022-11-05T04:17:07.313Z,11.70
2022-11-05T04:20:11.347Z,8.55
2022-11-05T04:23:22.699Z,10.63
2022-11-05T04:26:09.691Z,10.88
2022-11-05T04:29:14.157Z,13.18
2022-11-05T04:32:02.506Z,10.30
2022-11-05T04:34:49.281Z,10.15
2022-11-05T04:37:35.996Z,8.93
2022-11-05T04:40:22.826Z,10.70
2022-11-05T04:43:14.919Z,11.93
2022-11-05T04:46:02.198Z,12.00
2022-11-05T04:48:50.141Z,15.65
2022-11-05T04:51:36.897Z,12.57
2022-11-05T04:54:23.673Z,13.05
2022-11-05T04:57:11.096Z,12.35
2022-11-05T04:59:57.985Z,12.73
2022-11-05T05:02:44.925Z,13.13
2022-11-05T05:05:32.902Z,12.70
2022-11-05T05:08:19.503Z,14.30
2022-11-05T05:11:08.015Z,14.82
2022-11-05T05:13:54.937Z,13.60
2022-11-05T05:16:41.565Z,13.80
2022-11-05T05:19:28.588Z,12.33
2022-11-05T05:22:16.068Z,17.75
2022-11-05T05:25:03.371Z,16.23
2022-11-05T05:27:50.409Z,15.63
2022-11-05T05:30:37.197Z,18.40
2022-11-05T05:33:24.313Z,17.53
2022-11-05T05:36:11.671Z,18.80
2022-11-05T05:39:00.253Z,18.33
2022-11-05T05:41:47.003Z,18.60
2022-11-05T05:44:33.661Z,22.77
2022-11-05T05:47:21.096Z,19.03
2022-11-05T05:50:08.487Z,21.98
2022-11-05T05:52:55.792Z,19.00
2022-11-05T05:55:44.314Z,18.58
2022-11-05T05:58:33.618Z,21.85
2022-11-05T06:01:20.840Z,20.43
2022-11-05T06:04:07.980Z,16.95
2022-11-05T06:06:54.770Z,19.10
2022-11-05T06:09:42.051Z,16.85
2022-11-05T06:12:31.425Z,19.17
2022-11-05T06:15:18.539Z,18.77
2022-11-05T06:18:05.471Z,19.85
2022-11-05T06:20:52.913Z,23.90
2022-11-05T06:23:42.438Z,21.42
2022-11-05T06:26:29.799Z,16.63
2022-11-05T06:29:17.882Z,16.43
2022-11-05T06:32:04.537Z,18.50
2022-11-05T06:34:51.322Z,20.00
2022-11-05T06:37:38.171Z,17.38
2022-11-05T06:40:26.324Z,18.73
2022-11-05T06:43:13.381Z,17.50
2022-11-05T06:46:03.810Z,16.02
2022-11-05T06:48:50.975Z,14.93
2022-11-05T06:51:38.123Z,15.30
2022-11-05T06:54:25.054Z,17.10
2022-11-05T06:57:12.856Z,16.50
2022-11-05T07:00:03.325Z,16.30
2022-11-05T07:02:55.898Z,16.00
2022-11-05T07:05:47.516Z,14.85
2022-11-05T07:08:36.225Z,16.50
2022-11-05T07:11:23.317Z,17.63
2022-11-05T07:14:10.506Z,16.92
2022-11-05T07:16:57.872Z,17.35
2022-11-05T07:19:46.226Z,18.45
2022-11-05T07:22:33.347Z,23.85
2022-11-05T07:25:20.333Z,21.67
2022-11-05T07:28:07.872Z,20.08
2022-11-05T07:30:55.067Z,22.40
2022-11-05T07:33:41.940Z,21.70
2022-11-05T07:36:30.203Z,20.83
2022-11-05T07:39:17.380Z,19.47
2022-11-05T07:42:04.237Z,21.65
2022-11-05T07:44:53.653Z,19.27
2022-11-05T07:47:46.845Z,23.35
2022-11-05T07:50:36.789Z,20.92
2022-11-05T07:53:25.094Z,17.67
2022-11-05T07:56:12.129Z,22.77
2022-11-05T07:58:59.063Z,20.85
2022-11-05T08:01:46.561Z,18.50
2022-11-05T08:04:33.532Z,25.40
2022-11-05T08:07:20.693Z,25.43
2022-11-05T08:10:09.819Z,19.55
2022-11-05T08:12:57.566Z,21.83
2022-11-05T08:15:45.387Z,20.73
2022-11-05T08:18:33.107Z,22.77
2022-11-05T08:21:19.818Z,20.97
2022-11-05T08:24:07.376Z,21.08
2022-11-05T08:26:55.518Z,21.33
2022-11-05T08:29:42.404Z,23.77
2022-11-05T08:32:29.429Z,25.85
2022-11-05T08:35:16.054Z,24.00
2022-11-05T08:38:04.170Z,23.30
2022-11-05T08:40:57.476Z,24.13
2022-11-05T08:43:45.636Z,24.42
2022-11-05T08:46:32.293Z,24.42
2022-11-05T08:49:19.739Z,22.57
2022-11-05T08:52:06.880Z,28.10
2022-11-05T08:54:54.009Z,28.15
2022-11-05T08:57:40.785Z,31.90
2022-11-05T09:00:30.670Z,31.92
2022-11-05T09:03:17.860Z,32.37
2022-11-05T09:06:05.343Z,31.33
2022-11-05T09:08:52.651Z,33.70
2022-11-05T09:12:09.831Z,33.90
2022-11-05T09:14:46.115Z,35.80
2022-11-05T09:17:34.329Z,31.43
2022-11-05T09:20:21.066Z,32.53
2022-11-05T09:23:09.523Z,36.75
2022-11-05T09:25:56.292Z,31.05
2022-11-05T09:28:44.274Z,31.75
2022-11-05T09:31:31.417Z,30.43
2022-11-05T09:34:20.010Z,32.78
2022-11-05T09:37:06.582Z,33.13
2022-11-05T09:39:54.205Z,30.65
2022-11-05T09:42:46.752Z,32.08
2022-11-05T09:45:36.435Z,27.67
2022-11-05T09:48:29.046Z,30.52
2022-11-05T09:51:23.660Z,27.98
2022-11-05T09:54:12.887Z,28.00
2022-11-05T09:57:02.736Z,25.40
2022-11-05T09:59:52.894Z,25.20
2022-11-05T10:02:48.601Z,25.35
2022-11-05T10:05:38.009Z,25.90
2022-11-05T10:08:30.909Z,26.08
2022-11-05T10:11:22.105Z,24.55
2022-11-05T10:14:15.583Z,20.43
2022-11-05T10:17:09.863Z,25.48
2022-11-05T10:20:04.114Z,22.92
2022-11-05T10:22:57.728Z,24.48
2022-11-05T10:25:48.507Z,22.92
2022-11-05T10:28:36.083Z,22.77
2022-11-05T10:31:24.508Z,25.02
2022-11-05T10:34:13.703Z,28.48
2022-11-05T10:37:00.966Z,23.00
2022-11-05T10:39:47.847Z,21.50
2022-11-05T10:42:48.012Z,25.33
2022-11-05T10:45:41.518Z,24.23
2022-11-05T10:48:51.817Z,20.67
2022-11-05T10:51:39.095Z,18.80
2022-11-05T10:54:31.365Z,20.48
2022-11-05T10:57:30.678Z,21.43
2022-11-05T11:00:25.958Z,20.77
2022-11-05T11:03:35.069Z,17.02
2022-11-05T11:06:25.987Z,18.27
2022-11-05T11:09:21.953Z,15.43
2022-11-05T11:12:16.809Z,16.07
2022-11-05T11:15:06.230Z,13.43
2022-11-05T11:17:55.320Z,15.25
2022-11-05T11:20:45.848Z,13.73
2022-11-05T11:23:38.552Z,11.18
2022-11-05T11:26:26.893Z,13.90
2022-11-05T11:29:19.393Z,12.70
2022-11-05T11:32:14.222Z,11.90
2022-11-05T11:35:03.437Z,12.07
2022-11-05T11:37:54.274Z,10.85
2022-11-05T11:40:41.805Z,10.20
2022-11-05T11:43:31.128Z,10.25
2022-11-05T11:46:20.621Z,12.50
2022-11-05T11:49:08.140Z,11.02
2022-11-05T11:52:02.722Z,10.35
2022-11-05T11:54:51.189Z,9.53
2022-11-05T11:57:45.589Z,10.00
2022-11-05T12:00:37.624Z,10.05
2022-11-05T12:03:32.038Z,9.77
2022-11-05T12:06:28.429Z,9.77
2022-11-05T12:09:22.618Z,7.47
2022-11-05T12:12:13.115Z,10.18
2022-11-05T12:15:15.733Z,11.25
2022-11-05T12:18:04.632Z,8.30
2022-11-05T12:21:13.291Z,7.72
2022-11-05T12:24:35.589Z,10.23
2022-11-05T12:27:34.566Z,8.15
2022-11-05T12:30:23.133Z,7.95
2022-11-05T12:33:23.266Z,10.02
2022-11-05T12:36:20.436Z,8.73
2022-11-05T12:39:29.781Z,7.90
2022-11-05T12:42:30.827Z,8.40
2022-11-05T12:45:30.726Z,10.93
2022-11-05T12:48:42.336Z,9.60
2022-11-05T12:51:44.083Z,8.73
2022-11-05T12:54:44.424Z,7.80
2022-11-05T12:57:36.969Z,8.27
2022-11-05T13:00:25.890Z,7.28
2022-11-05T13:03:25.474Z,9.23
2022-11-05T13:06:15.984Z,8.57
2022-11-05T13:09:08.378Z,9.10
2022-11-05T13:11:58.880Z,11.05
2022-11-05T13:14:56.182Z,7.93
2022-11-05T13:17:51.740Z,8.90
2022-11-05T13:20:41.179Z,10.73
2022-11-05T13:23:33.146Z,9.63
2022-11-05T13:26:25.725Z,10.73
2022-11-05T13:29:16.584Z,8.43
2022-11-05T13:32:13.511Z,9.52
2022-11-05T13:35:03.439Z,6.22
2022-11-05T13:38:15.503Z,9.77
2022-11-05T13:41:20.891Z,7.50
2022-11-05T13:44:45.024Z,9.18
2022-11-05T13:47:55.057Z,10.05
2022-11-05T13:51:01.393Z,7.35
2022-11-05T13:54:05.935Z,7.93
2022-11-05T13:57:09.927Z,8.25
2022-11-05T14:00:11.401Z,7.40
2022-11-05T14:03:03.311Z,8.77
2022-11-05T14:05:54.210Z,7.97
2022-11-05T14:08:45.898Z,9.83
2022-11-05T14:11:35.654Z,8.10
2022-11-05T14:14:27.179Z,8.75
2022-11-05T14:17:17.691Z,10.15
2022-11-05T14:20:25.164Z,9.98
2022-11-05T14:23:49.831Z,11.03
2022-11-05T14:26:36.709Z,9.60
2022-11-05T14:29:25.557Z,9.95
2022-11-05T14:32:26.871Z,10.32
2022-11-05T14:35:36.340Z,8.07
2022-11-05T14:38:25.968Z,7.97
2022-11-05T14:41:12.847Z,8.15
2022-11-05T14:44:05.942Z,7.35
2022-11-05T14:46:55.894Z,6.78
2022-11-05T14:49:53.271Z,9.75
2022-11-05T14:52:52.066Z,8.77
2022-11-05T14:55:41.345Z,10.57
2022-11-05T14:58:34.057Z,10.00
2022-11-05T15:01:56.134Z,6.63
2022-11-05T15:04:45.612Z,8.82
2022-11-05T15:07:39.346Z,6.20
2022-11-05T15:10:33.079Z,7.38
2022-11-05T15:13:29.894Z,8.00
2022-11-05T15:16:21.769Z,7.95
2022-11-05T15:19:18.488Z,8.98
2022-11-05T15:22:22.922Z,9.07
2022-11-05T15:25:18.484Z,9.23
2022-11-05T15:28:15.376Z,6.45
2022-11-05T15:31:04.153Z,7.72
2022-11-05T15:33:50.903Z,7.68
2022-11-05T15:36:37.841Z,8.03
2022-11-05T15:39:29.757Z,7.05
2022-11-05T15:42:22.088Z,9.43
2022-11-05T15:45:21.335Z,7.05
2022-11-05T15:48:16.565Z,9.00
2022-11-05T15:51:04.050Z,8.73
2022-11-05T15:57:15.826Z,9.65
2022-11-05T16:00:06.703Z,9.68
2022-11-05T16:02:58.265Z,10.00
2022-11-05T16:05:48.211Z,7.23
2022-11-05T16:08:34.987Z,8.02
2022-11-05T16:11:23.244Z,8.35
2022-11-05T16:14:18.645Z,7.72
2022-11-05T16:17:19.051Z,7.97
2022-11-05T16:20:21.780Z,7.87
2022-11-05T16:23:24.161Z,8.93
2022-11-05T16:29:40.852Z,10.27
2022-11-05T16:32:30.989Z,8.43
2022-11-05T16:35:22.261Z,7.13
2022-11-05T16:38:13.034Z,7.30
2022-11-05T16:41:00.409Z,7.47
2022-11-05T16:43:53.472Z,7.95
2022-11-05T16:46:42.518Z,7.47
2022-11-05T16:49:29.649Z,7.37
2022-11-05T16:52:17.839Z,10.20
2022-11-05T16:55:05.773Z,10.63
2022-11-05T16:57:55.584Z,7.25
2022-11-05T17:00:42.919Z,9.02
2022-11-05T17:03:30.651Z,8.27
2022-11-05T17:06:18.879Z,9.27
2022-11-05T17:09:07.461Z,8.32
2022-11-05T17:11:54.186Z,6.70
2022-11-05T17:14:41.075Z,7.63
2022-11-05T17:17:28.976Z,8.10
2022-11-05T17:20:25.239Z,7.80
2022-11-05T17:23:15.852Z,6.78
2022-11-05T17:26:07.928Z,9.68
2022-11-05T17:28:54.849Z,9.85
2022-11-05T17:31:42.535Z,8.60
2022-11-05T17:34:29.470Z,10.18
2022-11-05T17:37:17.919Z,7.50
2022-11-05T17:40:07.162Z,6.68
2022-11-05T17:42:55.500Z,9.35
2022-11-05T17:45:43.716Z,6.70
2022-11-05T17:48:30.490Z,9.57
2022-11-05T17:51:19.051Z,9.20
2022-11-05T17:54:07.556Z,8.88
2022-11-05T17:56:55.047Z,8.05
2022-11-05T17:59:43.677Z,8.37
2022-11-05T18:02:30.981Z,9.13
2022-11-05T18:05:19.033Z,7.03
2022-11-05T18:08:06.659Z,9.63
2022-11-05T18:10:54.522Z,7.53
2022-11-05T18:13:41.795Z,7.07
2022-11-05T18:16:30.611Z,9.48
2022-11-05T18:19:17.984Z,6.78
2022-11-05T18:22:04.763Z,7.50
2022-11-05T18:24:52.392Z,6.75
2022-11-05T18:27:40.077Z,7.27
2022-11-05T18:30:26.943Z,7.00
2022-11-05T18:33:15.720Z,7.07
2022-11-05T18:36:02.965Z,6.20
2022-11-05T18:38:50.860Z,8.40
2022-11-05T18:41:38.050Z,7.30
2022-11-05T18:44:25.497Z,7.68
2022-11-05T18:47:12.771Z,7.38
2022-11-05T18:50:01.073Z,7.97
2022-11-05T18:52:48.350Z,6.00
2022-11-05T18:55:35.251Z,7.93
2022-11-05T18:58:22.134Z,7.85
2022-11-05T19:01:15.799Z,7.30
2022-11-05T19:04:02.912Z,6.07
2022-11-05T19:06:51.000Z,7.32
2022-11-05T19:09:39.762Z,8.20
2022-11-05T19:12:26.492Z,10.02
2022-11-05T19:15:13.047Z,7.53
2022-11-05T19:17:59.767Z,6.47
2022-11-05T19:20:46.439Z,6.20
2022-11-05T19:23:37.616Z,10.33
2022-11-05T19:26:28.784Z,7.35
2022-11-05T19:29:16.433Z,6.18
2022-11-05T19:32:03.602Z,7.78
2022-11-05T19:34:50.696Z,6.57
2022-11-05T19:37:37.318Z,8.70
2022-11-05T19:40:25.477Z,7.85
2022-11-05T19:43:12.981Z,8.00
2022-11-05T19:45:59.933Z,7.03
2022-11-05T19:48:47.052Z,5.93
2022-11-05T19:51:34.307Z,6.13
2022-11-05T19:54:21.370Z,6.57
2022-11-05T19:57:09.649Z,6.53
2022-11-05T19:59:57.158Z,6.68
2022-11-05T20:02:46.223Z,7.03
2022-11-05T20:05:34.428Z,6.57
2022-11-05T20:08:22.111Z,7.15
2022-11-05T20:11:10.038Z,5.90
2022-11-05T20:13:59.221Z,7.07
2022-11-05T20:16:47.419Z,6.68
2022-11-05T20:19:35.575Z,6.13
2022-11-05T20:22:24.152Z,9.57
2022-11-05T20:25:12.300Z,8.30
2022-11-05T20:27:59.870Z,7.30
2022-11-05T20:30:49.012Z,6.68
2022-11-05T20:33:36.413Z,7.37
2022-11-05T20:36:25.762Z,7.93
2022-11-05T20:39:13.327Z,7.13
2022-11-05T20:42:01.416Z,7.90
2022-11-05T20:44:49.306Z,8.27
2022-11-05T20:47:38.542Z,6.53
2022-11-05T20:50:25.792Z,8.60
2022-11-05T20:53:14.377Z,6.75
2022-11-05T20:56:07.471Z,6.28
2022-11-05T20:58:57.850Z,7.00
2022-11-05T21:01:45.258Z,7.10
2022-11-05T21:04:34.197Z,6.70
2022-11-05T21:07:21.589Z,7.70
2022-11-05T21:10:09.382Z,8.82
2022-11-05T21:12:56.712Z,7.28
2022-11-05T21:15:48.896Z,6.10
2022-11-05T21:18:38.544Z,8.52
2022-11-05T21:21:27.159Z,8.80
2022-11-05T21:24:14.742Z,6.22
2022-11-05T21:27:03.222Z,8.13
2022-11-05T21:29:50.087Z,5.83
2022-11-05T21:32:37.705Z,7.15
2022-11-05T21:35:25.260Z,7.75
2022-11-05T21:38:16.023Z,8.02
2022-11-05T21:41:04.523Z,8.05
2022-11-05T21:43:51.732Z,8.33
2022-11-05T21:46:39.607Z,8.25
2022-11-05T21:49:27.275Z,6.28
2022-11-05T21:52:32.286Z,8.20
2022-11-05T21:55:38.493Z,6.85
2022-11-05T21:58:43.872Z,7.77
2022-11-05T22:01:31.752Z,8.63
2022-11-05T22:04:19.554Z,8.10
2022-11-05T22:07:08.540Z,6.95
2022-11-05T22:09:56.294Z,6.70
2022-11-05T22:12:45.912Z,6.10
2022-11-05T22:15:34.447Z,7.07
2022-11-05T22:18:21.872Z,8.02
2022-11-05T22:21:09.384Z,8.77
2022-11-05T22:23:56.679Z,7.80
2022-11-05T22:26:44.801Z,7.80
2022-11-05T22:29:34.308Z,8.13
2022-11-05T22:32:21.686Z,6.10
2022-11-05T22:35:09.621Z,6.97
2022-11-05T22:37:57.192Z,7.45
2022-11-05T22:40:44.633Z,7.17
2022-11-05T22:43:33.284Z,9.70
2022-11-05T22:46:23.979Z,7.15
2022-11-05T22:49:11.366Z,7.07
2022-11-05T22:51:59.103Z,6.97
2022-11-05T22:54:47.859Z,9.23
2022-11-05T22:57:35.089Z,6.68
2022-11-05T23:00:33.960Z,8.70
2022-11-05T23:03:22.505Z,6.65
2022-11-05T23:06:36.107Z,7.38
2022-11-05T23:09:43.377Z,7.63
2022-11-05T23:12:32.908Z,7.00
2022-11-05T23:15:34.648Z,6.63
2022-11-05T23:18:40.869Z,7.40
2022-11-05T23:21:45.445Z,9.98
2022-11-05T23:24:32.890Z,7.13
2022-11-05T23:27:20.329Z,7.63
2022-11-05T23:30:11.200Z,7.35
2022-11-05T23:32:57.249Z,8.07
2022-11-05T23:36:03.357Z,7.40
2022-11-05T23:38:50.915Z,8.87
2022-11-05T23:41:55.162Z,8.30
2022-11-05T23:45:00.456Z,6.05
2022-11-05T23:48:05.780Z,8.77
2022-11-05T23:51:00.063Z,8.50
2022-11-05T23:53:48.159Z,5.67
2022-11-05T23:56:35.939Z,6.57
2022-11-05T23:59:23.237Z,6.25
